sensor_id;sensor_type;location;lat;lon;timestamp;pressure;altitude;pressure_sealevel;temperature;humidity
83122;BME280;73002;47.238;9.006;2024-02-21T00:02:00;95942.69;;;7.20;55.79
83122;BME280;73002;47.238;9.006;2024-02-21T00:04:29;95934.00;;;7.12;55.94
83122;BME280;73002;47.238;9.006;2024-02-21T00:06:59;95930.50;;;6.93;56.12
83122;BME280;73002;47.238;9.006;2024-02-21T00:11:59;95908.41;;;6.89;56.33
83122;BME280;73002;47.238;9.006;2024-02-21T00:14:28;95929.53;;;6.65;57.30
83122;BME280;73002;47.238;9.006;2024-02-21T00:16:53;95930.09;;;6.78;57.05
83122;BME280;73002;47.238;9.006;2024-02-21T00:19:19;95932.13;;;6.75;57.05
83122;BME280;73002;47.238;9.006;2024-02-21T00:21:44;95922.31;;;6.88;56.16
83122;BME280;73002;47.238;9.006;2024-02-21T00:24:10;95939.19;;;7.02;55.90
83122;BME280;73002;47.238;9.006;2024-02-21T00:26:35;95931.31;;;6.64;56.99
83122;BME280;73002;47.238;9.006;2024-02-21T00:34:11;95913.88;;;6.96;56.19
83122;BME280;73002;47.238;9.006;2024-02-21T00:36:38;95916.59;;;6.84;56.53
83122;BME280;73002;47.238;9.006;2024-02-21T00:39:03;95918.63;;;6.91;56.40
83122;BME280;73002;47.238;9.006;2024-02-21T00:41:29;95917.84;;;6.71;56.88
83122;BME280;73002;47.238;9.006;2024-02-21T00:43:54;95915.25;;;6.61;56.75
83122;BME280;73002;47.238;9.006;2024-02-21T00:48:55;95893.28;;;7.04;55.47
83122;BME280;73002;47.238;9.006;2024-02-21T00:51:20;95906.75;;;7.17;55.14
83122;BME280;73002;47.238;9.006;2024-02-21T00:53:46;95882.84;;;6.96;55.45
83122;BME280;73002;47.238;9.006;2024-02-21T00:56:11;95897.78;;;7.02;55.39
83122;BME280;73002;47.238;9.006;2024-02-21T00:58:37;95885.53;;;7.04;54.85
83122;BME280;73002;47.238;9.006;2024-02-21T01:03:39;95891.69;;;6.74;55.87
83122;BME280;73002;47.238;9.006;2024-02-21T01:06:05;95888.97;;;6.75;56.21
83122;BME280;73002;47.238;9.006;2024-02-21T01:08:31;95892.25;;;6.97;55.64
83122;BME280;73002;47.238;9.006;2024-02-21T01:10:58;95891.69;;;6.74;55.98
83122;BME280;73002;47.238;9.006;2024-02-21T01:13:23;95875.50;;;6.72;55.76
83122;BME280;73002;47.238;9.006;2024-02-21T01:15:49;95881.50;;;6.72;56.00
83122;BME280;73002;47.238;9.006;2024-02-21T01:18:17;95892.06;;;6.98;55.37
83122;BME280;73002;47.238;9.006;2024-02-21T01:20:42;95885.84;;;7.01;55.36
83122;BME280;73002;47.238;9.006;2024-02-21T01:23:09;95867.91;;;6.70;55.95
83122;BME280;73002;47.238;9.006;2024-02-21T01:25:35;95873.09;;;6.70;55.90
83122;BME280;73002;47.238;9.006;2024-02-21T01:28:00;95879.44;;;6.17;57.59
83122;BME280;73002;47.238;9.006;2024-02-21T01:30:27;95873.47;;;6.36;56.99
83122;BME280;73002;47.238;9.006;2024-02-21T01:32:52;95876.06;;;6.26;57.64
83122;BME280;73002;47.238;9.006;2024-02-21T01:35:21;95867.91;;;6.51;56.90
83122;BME280;73002;47.238;9.006;2024-02-21T01:42:57;95857.28;;;6.54;56.36
83122;BME280;73002;47.238;9.006;2024-02-21T01:47:58;95862.72;;;6.60;56.23
83122;BME280;73002;47.238;9.006;2024-02-21T01:50:23;95855.09;;;6.49;56.73
83122;BME280;73002;47.238;9.006;2024-02-21T01:52:51;95841.25;;;6.50;56.28
83122;BME280;73002;47.238;9.006;2024-02-21T01:55:20;95857.44;;;6.42;57.13
83122;BME280;73002;47.238;9.006;2024-02-21T01:57:49;95847.78;;;6.25;56.59
83122;BME280;73002;47.238;9.006;2024-02-21T02:00:16;95867.34;;;6.28;57.60
83122;BME280;73002;47.238;9.006;2024-02-21T02:10:27;95868.19;;;6.38;56.22
83122;BME280;73002;47.238;9.006;2024-02-21T02:12:52;95859.47;;;6.29;56.68
83122;BME280;73002;47.238;9.006;2024-02-21T02:15:18;95838.25;;;6.45;56.40
83122;BME280;73002;47.238;9.006;2024-02-21T02:17:43;95831.59;;;6.33;56.54
83122;BME280;73002;47.238;9.006;2024-02-21T02:20:09;95839.59;;;6.49;56.61
83122;BME280;73002;47.238;9.006;2024-02-21T02:22:36;95823.97;;;6.51;55.89
83122;BME280;73002;47.238;9.006;2024-02-21T02:25:04;95833.50;;;6.50;56.20
83122;BME280;73002;47.238;9.006;2024-02-21T02:27:29;95817.31;;;6.48;55.85
83122;BME280;73002;47.238;9.006;2024-02-21T02:29:55;95817.16;;;6.69;55.73
83122;BME280;73002;47.238;9.006;2024-02-21T02:32:20;95822.72;;;6.74;55.56
83122;BME280;73002;47.238;9.006;2024-02-21T02:34:47;95793.03;;;6.88;54.70
83122;BME280;73002;47.238;9.006;2024-02-21T02:37:13;95795.72;;;6.96;54.64
83122;BME280;73002;47.238;9.006;2024-02-21T02:39:38;95799.28;;;6.95;54.79
83122;BME280;73002;47.238;9.006;2024-02-21T02:42:04;95815.28;;;7.09;54.65
83122;BME280;73002;47.238;9.006;2024-02-21T02:44:30;95815.72;;;6.94;55.44
83122;BME280;73002;47.238;9.006;2024-02-21T02:46:56;95789.94;;;6.75;55.29
83122;BME280;73002;47.238;9.006;2024-02-21T02:49:22;95788.56;;;6.80;55.78
83122;BME280;73002;47.238;9.006;2024-02-21T02:51:47;95782.78;;;6.96;54.74
83122;BME280;73002;47.238;9.006;2024-02-21T03:01:59;95777.59;;;6.59;56.74
83122;BME280;73002;47.238;9.006;2024-02-21T03:04:24;95772.66;;;6.65;56.66
83122;BME280;73002;47.238;9.006;2024-02-21T03:06:50;95751.38;;;6.81;56.01
83122;BME280;73002;47.238;9.006;2024-02-21T03:09:16;95772.88;;;6.92;56.24
83122;BME280;73002;47.238;9.006;2024-02-21T03:11:42;95765.81;;;6.84;56.39
83122;BME280;73002;47.238;9.006;2024-02-21T03:14:10;95755.00;;;6.98;55.77
83122;BME280;73002;47.238;9.006;2024-02-21T03:19:01;95742.16;;;6.79;56.27
83122;BME280;73002;47.238;9.006;2024-02-21T03:21:28;95745.13;;;6.84;56.21
83122;BME280;73002;47.238;9.006;2024-02-21T03:23:53;95738.50;;;6.72;55.81
83122;BME280;73002;47.238;9.006;2024-02-21T03:26:20;95756.34;;;7.12;54.85
83122;BME280;73002;47.238;9.006;2024-02-21T03:28:48;95750.84;;;7.15;55.39
83122;BME280;73002;47.238;9.006;2024-02-21T03:31:14;95746.03;;;7.30;54.84
83122;BME280;73002;47.238;9.006;2024-02-21T03:33:41;95750.06;;;7.15;54.97
83122;BME280;73002;47.238;9.006;2024-02-21T03:36:13;95732.88;;;7.14;55.14
83122;BME280;73002;47.238;9.006;2024-02-21T03:38:38;95731.94;;;7.15;55.01
83122;BME280;73002;47.238;9.006;2024-02-21T03:41:07;95711.16;;;7.07;55.46
83122;BME280;73002;47.238;9.006;2024-02-21T03:43:32;95720.72;;;6.96;55.04
83122;BME280;73002;47.238;9.006;2024-02-21T03:46:01;95718.97;;;6.97;55.22
83122;BME280;73002;47.238;9.006;2024-02-21T03:48:26;95719.16;;;7.13;55.38
83122;BME280;73002;47.238;9.006;2024-02-21T03:58:37;95701.59;;;7.35;54.62
83122;BME280;73002;47.238;9.006;2024-02-21T04:01:03;95679.41;;;7.32;54.14
83122;BME280;73002;47.238;9.006;2024-02-21T04:03:30;95689.88;;;7.13;55.24
83122;BME280;73002;47.238;9.006;2024-02-21T04:05:56;95670.34;;;7.00;55.36
83122;BME280;73002;47.238;9.006;2024-02-21T04:08:25;95665.56;;;7.05;55.25
83122;BME280;73002;47.238;9.006;2024-02-21T04:18:36;95640.66;;;7.04;55.13
83122;BME280;73002;47.238;9.006;2024-02-21T04:21:01;95640.06;;;7.11;55.32
83122;BME280;73002;47.238;9.006;2024-02-21T04:28:37;95630.84;;;7.26;54.24
83122;BME280;73002;47.238;9.006;2024-02-21T04:31:06;95628.66;;;6.76;55.44
83122;BME280;73002;47.238;9.006;2024-02-21T04:33:33;95637.16;;;6.96;54.93
83122;BME280;73002;47.238;9.006;2024-02-21T04:35:58;95634.91;;;6.83;55.21
83122;BME280;73002;47.238;9.006;2024-02-21T04:38:25;95625.88;;;6.97;54.85
83122;BME280;73002;47.238;9.006;2024-02-21T04:40:51;95608.72;;;6.96;54.54
83122;BME280;73002;47.238;9.006;2024-02-21T04:43:17;95610.84;;;7.00;54.89
83122;BME280;73002;47.238;9.006;2024-02-21T04:45:43;95606.25;;;6.94;55.26
83122;BME280;73002;47.238;9.006;2024-02-21T04:48:08;95595.91;;;6.76;55.72
83122;BME280;73002;47.238;9.006;2024-02-21T04:50:33;95595.75;;;6.78;54.98
83122;BME280;73002;47.238;9.006;2024-02-21T04:52:59;95584.97;;;6.82;55.31
83122;BME280;73002;47.238;9.006;2024-02-21T05:05:45;95602.81;;;6.48;55.41
83122;BME280;73002;47.238;9.006;2024-02-21T05:08:14;95601.41;;;6.63;55.77
83122;BME280;73002;47.238;9.006;2024-02-21T05:10:40;95612.75;;;6.80;55.83
83122;BME280;73002;47.238;9.006;2024-02-21T05:26:01;95607.31;;;7.01;55.36
83122;BME280;73002;47.238;9.006;2024-02-21T05:28:26;95602.34;;;7.08;54.90
83122;BME280;73002;47.238;9.006;2024-02-21T05:36:16;95557.84;;;6.69;56.52
83122;BME280;73002;47.238;9.006;2024-02-21T05:38:41;95560.75;;;6.83;55.72
83122;BME280;73002;47.238;9.006;2024-02-21T05:41:07;95559.06;;;6.92;55.09
83122;BME280;73002;47.238;9.006;2024-02-21T05:43:34;95564.53;;;7.07;55.11
83122;BME280;73002;47.238;9.006;2024-02-21T05:48:25;95548.25;;;7.33;53.10
83122;BME280;73002;47.238;9.006;2024-02-21T05:50:51;95558.84;;;7.21;54.07
83122;BME280;73002;47.238;9.006;2024-02-21T05:53:16;95566.81;;;7.28;53.70
83122;BME280;73002;47.238;9.006;2024-02-21T05:55:45;95563.78;;;7.15;53.84
83122;BME280;73002;47.238;9.006;2024-02-21T05:58:11;95567.78;;;7.27;53.53
83122;BME280;73002;47.238;9.006;2024-02-21T06:00:36;95572.06;;;7.36;53.34
83122;BME280;73002;47.238;9.006;2024-02-21T06:03:02;95575.50;;;7.37;53.35
83122;BME280;73002;47.238;9.006;2024-02-21T06:05:31;95562.03;;;7.33;53.22
83122;BME280;73002;47.238;9.006;2024-02-21T06:10:30;95564.47;;;7.17;53.43
83122;BME280;73002;47.238;9.006;2024-02-21T06:12:56;95580.16;;;7.33;53.46
83122;BME280;73002;47.238;9.006;2024-02-21T06:15:21;95588.78;;;7.24;53.37
83122;BME280;73002;47.238;9.006;2024-02-21T06:17:47;95577.69;;;7.14;53.56
83122;BME280;73002;47.238;9.006;2024-02-21T06:20:12;95584.72;;;7.39;52.99
83122;BME280;73002;47.238;9.006;2024-02-21T06:22:42;95577.47;;;7.25;53.20
83122;BME280;73002;47.238;9.006;2024-02-21T06:25:10;95590.75;;;7.48;52.43
83122;BME280;73002;47.238;9.006;2024-02-21T06:27:35;95604.41;;;7.50;52.47
83122;BME280;73002;47.238;9.006;2024-02-21T06:35:11;95580.06;;;7.43;52.61
83122;BME280;73002;47.238;9.006;2024-02-21T06:37:36;95575.59;;;7.53;51.95
83122;BME280;73002;47.238;9.006;2024-02-21T06:40:06;95550.03;;;7.50;51.38
83122;BME280;73002;47.238;9.006;2024-02-21T06:42:32;95559.78;;;7.56;51.63
83122;BME280;73002;47.238;9.006;2024-02-21T06:44:57;95566.13;;;7.62;51.76
83122;BME280;73002;47.238;9.006;2024-02-21T06:49:49;95573.09;;;7.43;51.87
83122;BME280;73002;47.238;9.006;2024-02-21T06:52:15;95566.38;;;7.51;51.34
83122;BME280;73002;47.238;9.006;2024-02-21T06:54:46;95569.38;;;7.64;51.47
83122;BME280;73002;47.238;9.006;2024-02-21T07:02:12;95563.56;;;7.88;50.43
83122;BME280;73002;47.238;9.006;2024-02-21T07:04:38;95570.22;;;7.47;50.54
83122;BME280;73002;47.238;9.006;2024-02-21T07:09:39;95556.59;;;7.62;51.19
83122;BME280;73002;47.238;9.006;2024-02-21T07:12:04;95551.25;;;7.64;51.46
83122;BME280;73002;47.238;9.006;2024-02-21T07:14:32;95562.44;;;7.91;50.42
83122;BME280;73002;47.238;9.006;2024-02-21T07:16:57;95541.22;;;7.87;50.81
83122;BME280;73002;47.238;9.006;2024-02-21T07:19:23;95540.56;;;8.11;49.32
83122;BME280;73002;47.238;9.006;2024-02-21T07:50:05;95562.75;;;14.40;38.56
83122;BME280;73002;47.238;9.006;2024-02-21T08:54:18;95491.66;;;17.35;32.70
83122;BME280;73002;47.238;9.006;2024-02-21T08:56:44;95478.78;;;17.52;32.24
83122;BME280;73002;47.238;9.006;2024-02-21T08:59:09;95494.56;;;18.76;30.64
83122;BME280;73002;47.238;9.006;2024-02-21T09:01:36;95489.47;;;18.08;31.13
83122;BME280;73002;47.238;9.006;2024-02-21T09:04:02;95492.94;;;17.51;32.34
83122;BME280;73002;47.238;9.006;2024-02-21T09:09:06;95481.81;;;18.92;29.85
83122;BME280;73002;47.238;9.006;2024-02-21T09:11:33;95480.91;;;18.68;30.25
83122;BME280;73002;47.238;9.006;2024-02-21T09:14:01;95484.06;;;18.40;30.74
83122;BME280;73002;47.238;9.006;2024-02-21T09:16:30;95486.41;;;18.48;30.76
83122;BME280;73002;47.238;9.006;2024-02-21T09:18:56;95479.34;;;18.05;30.44
83122;BME280;73002;47.238;9.006;2024-02-21T09:31:42;95473.91;;;16.40;34.42
83122;BME280;73002;47.238;9.006;2024-02-21T09:34:07;95478.97;;;16.49;33.82
83122;BME280;73002;47.238;9.006;2024-02-21T09:36:36;95460.28;;;16.64;33.95
83122;BME280;73002;47.238;9.006;2024-02-21T09:41:29;95473.44;;;15.98;35.05
83122;BME280;73002;47.238;9.006;2024-02-21T09:43:55;95466.69;;;16.29;34.43
83122;BME280;73002;47.238;9.006;2024-02-21T09:46:43;95469.59;;;16.01;34.58
83122;BME280;73002;47.238;9.006;2024-02-21T09:49:30;95462.78;;;15.47;36.18
83122;BME280;73002;47.238;9.006;2024-02-21T09:59:37;95463.78;;;15.39;36.46
83122;BME280;73002;47.238;9.006;2024-02-21T10:15:02;95450.25;;;15.62;35.85
83122;BME280;73002;47.238;9.006;2024-02-21T10:17:28;95456.13;;;15.77;35.62
83122;BME280;73002;47.238;9.006;2024-02-21T10:19:53;95456.69;;;15.99;36.41
83122;BME280;73002;47.238;9.006;2024-02-21T10:22:19;95445.22;;;15.47;36.59
83122;BME280;73002;47.238;9.006;2024-02-21T10:35:01;95454.69;;;15.81;34.68
83122;BME280;73002;47.238;9.006;2024-02-21T10:37:29;95441.59;;;15.55;37.14
83122;BME280;73002;47.238;9.006;2024-02-21T10:39:55;95445.34;;;16.12;34.45
83122;BME280;73002;47.238;9.006;2024-02-21T10:47:32;95430.47;;;15.73;34.29
83122;BME280;73002;47.238;9.006;2024-02-21T10:50:04;95426.44;;;15.90;34.96
83122;BME280;73002;47.238;9.006;2024-02-21T10:55:30;95423.38;;;16.52;34.41
83122;BME280;73002;47.238;9.006;2024-02-21T11:13:30;95375.22;;;15.81;34.46
83122;BME280;73002;47.238;9.006;2024-02-21T11:16:12;95375.56;;;15.91;34.75
83122;BME280;73002;47.238;9.006;2024-02-21T11:18:50;95362.59;;;16.10;35.65
83122;BME280;73002;47.238;9.006;2024-02-21T11:29:58;95348.09;;;16.07;33.46
83122;BME280;73002;47.238;9.006;2024-02-21T11:32:25;95343.19;;;16.24;33.27
83122;BME280;73002;47.238;9.006;2024-02-21T11:37:20;95325.94;;;16.67;34.33
83122;BME280;73002;47.238;9.006;2024-02-21T11:42:25;95306.94;;;16.39;33.75
83122;BME280;73002;47.238;9.006;2024-02-21T11:44:50;95312.34;;;16.76;34.29
83122;BME280;73002;47.238;9.006;2024-02-21T12:20:53;95258.16;;;16.57;33.11
83122;BME280;73002;47.238;9.006;2024-02-21T12:23:21;95245.03;;;16.57;31.68
83122;BME280;73002;47.238;9.006;2024-02-21T12:25:46;95242.00;;;16.28;32.05
83122;BME280;73002;47.238;9.006;2024-02-21T12:28:12;95237.72;;;16.34;33.70
83122;BME280;73002;47.238;9.006;2024-02-21T12:46:48;95193.13;;;16.02;32.93
83122;BME280;73002;47.238;9.006;2024-02-21T12:55:57;95183.22;;;16.29;33.23
83122;BME280;73002;47.238;9.006;2024-02-21T12:58:26;95182.00;;;16.57;32.63
83122;BME280;73002;47.238;9.006;2024-02-21T13:00:51;95175.88;;;16.63;32.92
83122;BME280;73002;47.238;9.006;2024-02-21T13:03:18;95160.66;;;16.28;32.60
83122;BME280;73002;47.238;9.006;2024-02-21T13:05:44;95159.56;;;16.36;32.37
83122;BME280;73002;47.238;9.006;2024-02-21T13:13:19;95160.06;;;15.94;33.93
83122;BME280;73002;47.238;9.006;2024-02-21T13:16:06;95155.25;;;15.91;34.12
83122;BME280;73002;47.238;9.006;2024-02-21T13:18:32;95146.59;;;16.16;33.23
83122;BME280;73002;47.238;9.006;2024-02-21T13:36:09;95096.03;;;15.77;35.82
83122;BME280;73002;47.238;9.006;2024-02-21T13:38:35;95105.78;;;15.95;35.61
83122;BME280;73002;47.238;9.006;2024-02-21T13:41:00;95096.53;;;16.17;35.93
83122;BME280;73002;47.238;9.006;2024-02-21T13:48:36;95080.66;;;16.31;32.50
83122;BME280;73002;47.238;9.006;2024-02-21T13:51:02;95064.72;;;16.32;33.44
83122;BME280;73002;47.238;9.006;2024-02-21T13:53:28;95059.75;;;16.42;32.95
83122;BME280;73002;47.238;9.006;2024-02-21T13:55:53;95050.84;;;16.25;33.31
83122;BME280;73002;47.238;9.006;2024-02-21T13:58:19;95055.34;;;16.18;34.15
83122;BME280;73002;47.238;9.006;2024-02-21T14:00:44;95045.59;;;16.25;34.86
83122;BME280;73002;47.238;9.006;2024-02-21T14:03:10;95031.47;;;16.26;34.99
83122;BME280;73002;47.238;9.006;2024-02-21T14:05:36;95038.00;;;16.35;34.09
83122;BME280;73002;47.238;9.006;2024-02-21T14:31:47;94996.03;;;15.73;35.50
83122;BME280;73002;47.238;9.006;2024-02-21T14:34:12;95006.56;;;15.92;35.29
83122;BME280;73002;47.238;9.006;2024-02-21T14:36:38;94987.97;;;15.93;35.67
83122;BME280;73002;47.238;9.006;2024-02-21T14:39:03;94993.44;;;15.92;35.09
83122;BME280;73002;47.238;9.006;2024-02-21T14:41:33;94981.63;;;15.82;35.71
83122;BME280;73002;47.238;9.006;2024-02-21T14:44:00;94990.38;;;15.76;35.97
83122;BME280;73002;47.238;9.006;2024-02-21T15:09:26;94975.00;;;15.23;36.20
83122;BME280;73002;47.238;9.006;2024-02-21T15:11:52;94969.34;;;15.51;35.96
83122;BME280;73002;47.238;9.006;2024-02-21T15:14:18;94979.50;;;15.41;35.67
83122;BME280;73002;47.238;9.006;2024-02-21T15:16:43;94964.97;;;15.45;35.81
83122;BME280;73002;47.238;9.006;2024-02-21T15:25:14;94971.06;;;15.14;36.88
83122;BME280;73002;47.238;9.006;2024-02-21T15:39:51;94977.84;;;14.83;37.67
83122;BME280;73002;47.238;9.006;2024-02-21T16:16:49;94961.34;;;14.31;36.89
83122;BME280;73002;47.238;9.006;2024-02-21T16:19:15;94944.72;;;14.12;37.04
83122;BME280;73002;47.238;9.006;2024-02-21T16:42:15;94926.56;;;13.32;41.42
83122;BME280;73002;47.238;9.006;2024-02-21T16:44:40;94911.06;;;13.10;41.65
83122;BME280;73002;47.238;9.006;2024-02-21T16:47:08;94928.13;;;13.19;41.68
83122;BME280;73002;47.238;9.006;2024-02-21T16:57:09;94902.41;;;13.03;42.95
83122;BME280;73002;47.238;9.006;2024-02-21T16:59:37;94883.72;;;13.06;42.31
83122;BME280;73002;47.238;9.006;2024-02-21T17:02:03;94876.31;;;12.89;42.67
83122;BME280;73002;47.238;9.006;2024-02-21T17:04:29;94873.50;;;12.91;43.07
83122;BME280;73002;47.238;9.006;2024-02-21T17:14:40;94867.47;;;12.97;42.75
83122;BME280;73002;47.238;9.006;2024-02-21T17:17:06;94855.81;;;12.73;43.57
83122;BME280;73002;47.238;9.006;2024-02-21T17:37:40;94868.25;;;12.71;44.06
83122;BME280;73002;47.238;9.006;2024-02-21T17:47:42;94851.78;;;12.57;44.06
83122;BME280;73002;47.238;9.006;2024-02-21T17:50:07;94858.84;;;12.70;42.56
83122;BME280;73002;47.238;9.006;2024-02-21T17:52:33;94871.91;;;12.83;42.85
83122;BME280;73002;47.238;9.006;2024-02-21T18:00:11;94866.19;;;12.33;44.39
83122;BME280;73002;47.238;9.006;2024-02-21T18:07:49;94877.25;;;12.48;43.72
83122;BME280;73002;47.238;9.006;2024-02-21T18:10:15;94856.97;;;12.50;44.58
83122;BME280;73002;47.238;9.006;2024-02-21T18:17:51;94841.34;;;12.44;44.34
83122;BME280;73002;47.238;9.006;2024-02-21T18:20:16;94848.34;;;12.43;44.79
83122;BME280;73002;47.238;9.006;2024-02-21T18:22:42;94835.31;;;12.50;43.67
83122;BME280;73002;47.238;9.006;2024-02-21T18:25:09;94810.59;;;12.39;42.94
83122;BME280;73002;47.238;9.006;2024-02-21T18:27:34;94810.78;;;12.18;44.33
83122;BME280;73002;47.238;9.006;2024-02-21T18:35:10;94793.50;;;12.03;44.12
83122;BME280;73002;47.238;9.006;2024-02-21T18:37:36;94797.56;;;12.32;44.86
83122;BME280;73002;47.238;9.006;2024-02-21T18:40:01;94787.53;;;12.29;44.46
83122;BME280;73002;47.238;9.006;2024-02-21T18:42:34;94785.94;;;12.28;44.77
83122;BME280;73002;47.238;9.006;2024-02-21T18:44:59;94771.31;;;12.34;44.43
83122;BME280;73002;47.238;9.006;2024-02-21T18:47:28;94767.28;;;12.38;44.39
83122;BME280;73002;47.238;9.006;2024-02-21T18:57:41;94772.88;;;12.22;44.90
83122;BME280;73002;47.238;9.006;2024-02-21T19:00:08;94753.03;;;12.27;44.52
83122;BME280;73002;47.238;9.006;2024-02-21T19:02:33;94772.50;;;12.38;43.67
83122;BME280;73002;47.238;9.006;2024-02-21T19:05:00;94756.44;;;12.28;44.61
83122;BME280;73002;47.238;9.006;2024-02-21T19:07:25;94754.81;;;12.07;44.92
83122;BME280;73002;47.238;9.006;2024-02-21T19:09:51;94762.06;;;12.31;43.82
83122;BME280;73002;47.238;9.006;2024-02-21T19:12:16;94763.88;;;12.38;43.00
83122;BME280;73002;47.238;9.006;2024-02-21T19:14:43;94758.84;;;12.43;43.77
83122;BME280;73002;47.238;9.006;2024-02-21T19:23:26;94724.34;;;11.39;45.41
83122;BME280;73002;47.238;9.006;2024-02-21T19:25:53;94706.53;;;11.43;44.73
83122;BME280;73002;47.238;9.006;2024-02-21T19:28:18;94727.13;;;11.99;43.87
83122;BME280;73002;47.238;9.006;2024-02-21T19:30:46;94731.38;;;12.27;42.52
83122;BME280;73002;47.238;9.006;2024-02-21T19:33:13;94726.94;;;12.07;43.54
83122;BME280;73002;47.238;9.006;2024-02-21T19:35:41;94718.53;;;12.25;43.14
83122;BME280;73002;47.238;9.006;2024-02-21T19:38:08;94723.34;;;12.22;41.83
83122;BME280;73002;47.238;9.006;2024-02-21T19:43:09;94708.69;;;12.41;41.21
83122;BME280;73002;47.238;9.006;2024-02-21T19:45:35;94717.50;;;12.73;41.27
83122;BME280;73002;47.238;9.006;2024-02-21T19:48:00;94695.66;;;12.41;42.36
83122;BME280;73002;47.238;9.006;2024-02-21T19:50:25;94690.44;;;12.61;41.63
83122;BME280;73002;47.238;9.006;2024-02-21T19:52:57;94692.81;;;12.82;41.44
83122;BME280;73002;47.238;9.006;2024-02-21T19:57:58;94687.59;;;12.69;41.64
83122;BME280;73002;47.238;9.006;2024-02-21T20:05:24;94695.41;;;12.82;42.41
83122;BME280;73002;47.238;9.006;2024-02-21T20:15:25;94690.63;;;12.12;43.33
83122;BME280;73002;47.238;9.006;2024-02-21T20:17:55;94698.28;;;12.34;42.65
83122;BME280;73002;47.238;9.006;2024-02-21T20:20:23;94701.28;;;12.58;42.35
83122;BME280;73002;47.238;9.006;2024-02-21T20:22:49;94688.03;;;12.26;42.92
83122;BME280;73002;47.238;9.006;2024-02-21T20:27:59;94676.41;;;12.42;44.03
83122;BME280;73002;47.238;9.006;2024-02-21T20:30:25;94645.53;;;12.12;44.48
83122;BME280;73002;47.238;9.006;2024-02-21T20:35:28;94636.47;;;12.28;42.93
83122;BME280;73002;47.238;9.006;2024-02-21T20:37:55;94640.31;;;12.19;42.62
83122;BME280;73002;47.238;9.006;2024-02-21T20:40:20;94632.66;;;12.37;40.77
83122;BME280;73002;47.238;9.006;2024-02-21T20:47:56;94618.00;;;12.56;42.51
83122;BME280;73002;47.238;9.006;2024-02-21T20:50:21;94601.91;;;12.66;42.50
83122;BME280;73002;47.238;9.006;2024-02-21T20:52:49;94583.47;;;12.61;40.58
83122;BME280;73002;47.238;9.006;2024-02-21T20:55:15;94604.13;;;12.69;40.77
83122;BME280;73002;47.238;9.006;2024-02-21T20:57:49;94580.00;;;12.74;43.25
83122;BME280;73002;47.238;9.006;2024-02-21T21:02:43;94578.53;;;12.26;43.67
83122;BME280;73002;47.238;9.006;2024-02-21T21:05:09;94580.13;;;12.20;42.22
83122;BME280;73002;47.238;9.006;2024-02-21T21:10:10;94606.16;;;12.47;44.19
83122;BME280;73002;47.238;9.006;2024-02-21T21:12:38;94621.41;;;12.50;44.75
83122;BME280;73002;47.238;9.006;2024-02-21T21:15:05;94598.56;;;12.45;44.25
83122;BME280;73002;47.238;9.006;2024-02-21T21:17:31;94596.31;;;12.62;42.22
83122;BME280;73002;47.238;9.006;2024-02-21T21:19:57;94600.38;;;12.38;42.66
83122;BME280;73002;47.238;9.006;2024-02-21T21:22:24;94597.38;;;12.15;43.59
83122;BME280;73002;47.238;9.006;2024-02-21T21:36:01;94587.88;;;12.67;41.42
83122;BME280;73002;47.238;9.006;2024-02-21T21:38:29;94580.78;;;12.87;40.93
83122;BME280;73002;47.238;9.006;2024-02-21T21:40:54;94577.25;;;12.62;41.61
83122;BME280;73002;47.238;9.006;2024-02-21T21:43:20;94572.66;;;12.57;41.93
83122;BME280;73002;47.238;9.006;2024-02-21T21:45:45;94575.34;;;12.89;41.59
83122;BME280;73002;47.238;9.006;2024-02-21T21:48:10;94572.41;;;12.72;41.69
83122;BME280;73002;47.238;9.006;2024-02-21T21:50:36;94551.34;;;12.60;42.56
83122;BME280;73002;47.238;9.006;2024-02-21T22:05:37;94524.03;;;12.69;42.25
83122;BME280;73002;47.238;9.006;2024-02-21T22:08:06;94529.50;;;13.00;41.80
83122;BME280;73002;47.238;9.006;2024-02-21T22:10:31;94511.03;;;13.01;41.75
83122;BME280;73002;47.238;9.006;2024-02-21T22:28:08;94502.84;;;13.23;42.29
83122;BME280;73002;47.238;9.006;2024-02-21T22:30:36;94500.94;;;13.43;41.59
83122;BME280;73002;47.238;9.006;2024-02-21T22:33:02;94493.06;;;13.50;40.70
83122;BME280;73002;47.238;9.006;2024-02-21T22:35:27;94486.56;;;13.27;42.91
83122;BME280;73002;47.238;9.006;2024-02-21T22:37:53;94488.53;;;13.39;44.07
83122;BME280;73002;47.238;9.006;2024-02-21T22:42:46;94507.66;;;12.94;44.09
83122;BME280;73002;47.238;9.006;2024-02-21T22:45:12;94509.72;;;13.17;42.71
83122;BME280;73002;47.238;9.006;2024-02-21T22:47:40;94492.38;;;13.29;42.48
83122;BME280;73002;47.238;9.006;2024-02-21T22:57:34;94465.94;;;12.49;43.16
83122;BME280;73002;47.238;9.006;2024-02-21T23:20:31;94427.03;;;12.79;42.12
83122;BME280;73002;47.238;9.006;2024-02-21T23:22:56;94412.88;;;12.62;42.64
83122;BME280;73002;47.238;9.006;2024-02-21T23:25:22;94409.22;;;13.01;41.83
83122;BME280;73002;47.238;9.006;2024-02-21T23:27:49;94397.78;;;13.27;40.80
83122;BME280;73002;47.238;9.006;2024-02-21T23:30:15;94407.81;;;13.56;40.28
83122;BME280;73002;47.238;9.006;2024-02-21T23:32:40;94411.22;;;13.56;40.74
83122;BME280;73002;47.238;9.006;2024-02-21T23:35:06;94415.69;;;13.49;43.44
83122;BME280;73002;47.238;9.006;2024-02-21T23:42:44;94399.44;;;13.22;43.72
83122;BME280;73002;47.238;9.006;2024-02-21T23:45:13;94399.56;;;13.34;42.09
83122;BME280;73002;47.238;9.006;2024-02-21T23:47:38;94390.06;;;13.39;41.53
83122;BME280;73002;47.238;9.006;2024-02-21T23:50:08;94409.00;;;13.53;43.58
83122;BME280;73002;47.238;9.006;2024-02-21T23:52:34;94412.13;;;13.43;43.76
83122;BME280;73002;47.238;9.006;2024-02-21T23:55:00;94388.44;;;13.13;43.89
83122;BME280;73002;47.238;9.006;2024-02-21T23:57:27;94385.50;;;13.28;42.71
83122;BME280;73002;47.238;9.006;2024-02-21T23:59:52;94382.59;;;13.18;42.44
